Time;durP1;ratioP1;P1;durP2;ratioP2;P2;SDS_P1;SDS_P2;PMS_P1;PMS_P2;Temp;Humidity;BMP_temperature;BMP_pressure;BME280_temperature;BME280_humidity;BME280_pressure;Samples;Min_cycle;Max_cycle;Signal;HPM_P1;HPM_P2
2024/01/05 00:02:08;;;;;;;5.97;3.00;;;5.30;1.00;;;;;;5093233;28;20571;-42
2024/01/05 00:04:34;;;;;;;6.37;3.17;;;5.30;1.00;;;;;;5095201;28;20226;-41
2024/01/05 00:07:00;;;;;;;8.47;5.40;;;5.20;1.00;;;;;;5094587;28;20521;-41
2024/01/05 00:09:26;;;;;;;6.17;3.30;;;5.20;1.00;;;;;;5095591;28;20295;-45
2024/01/05 00:11:52;;;;;;;8.30;3.40;;;5.20;1.00;;;;;;5095177;28;20185;-45
2024/01/05 00:14:17;;;;;;;5.93;3.23;;;5.10;1.00;;;;;;5096406;28;20192;-41
2024/01/05 00:16:43;;;;;;;5.23;2.80;;;5.10;1.00;;;;;;5096646;28;20886;-46
2024/01/05 00:19:09;;;;;;;5.60;3.03;;;5.10;1.00;;;;;;5096785;28;20176;-44
2024/01/05 00:21:35;;;;;;;6.47;4.17;;;5.00;1.00;;;;;;5094718;28;20770;-43
2024/01/05 00:24:00;;;;;;;5.10;3.13;;;5.00;1.00;;;;;;5077548;28;20513;-43
2024/01/05 00:26:26;;;;;;;7.10;3.07;;;5.00;1.00;;;;;;5096261;28;20188;-44
2024/01/05 00:28:52;;;;;;;5.57;3.17;;;4.90;1.00;;;;;;5094411;28;20185;-42
2024/01/05 00:31:18;;;;;;;4.87;2.90;;;4.90;1.00;;;;;;5095060;28;20193;-42
2024/01/05 00:33:44;;;;;;;5.93;2.77;;;4.90;1.00;;;;;;5095307;28;20219;-43
2024/01/05 00:36:10;;;;;;;9.50;3.13;;;4.80;1.00;;;;;;5094336;28;20462;-43
2024/01/05 00:38:36;;;;;;;5.70;3.67;;;4.80;1.00;;;;;;5095944;28;20438;-44
2024/01/05 00:41:03;;;;;;;4.40;2.60;;;4.80;1.00;;;;;;5096375;28;20430;-41
2024/01/05 00:43:29;;;;;;;8.03;3.07;;;4.80;1.00;;;;;;5096337;28;20496;-43
2024/01/05 00:45:55;;;;;;;6.20;3.50;;;4.80;1.00;;;;;;5095810;28;20513;-44
2024/01/05 00:48:21;;;;;;;8.83;3.50;;;4.80;1.90;;;;;;5095968;28;20169;-41
2024/01/05 00:50:46;;;;;;;6.07;2.90;;;4.80;12.00;;;;;;5099876;28;20552;-43
2024/01/05 00:53:12;;;;;;;7.23;3.10;;;4.80;18.20;;;;;;5100378;28;20185;-41
2024/01/05 00:55:38;;;;;;;5.40;3.33;;;4.80;24.10;;;;;;5099969;28;20208;-42
2024/01/05 00:58:04;;;;;;;7.57;3.17;;;4.80;20.90;;;;;;5099942;28;20180;-45
2024/01/05 01:00:30;;;;;;;7.80;3.23;;;4.80;29.30;;;;;;5098467;28;20220;-42
2024/01/05 01:02:55;;;;;;;5.03;3.10;;;4.80;29.90;;;;;;5099485;28;20435;-43
2024/01/05 01:05:21;;;;;;;10.80;3.47;;;4.80;46.10;;;;;;5098570;28;20223;-44
2024/01/05 01:07:47;;;;;;;5.67;3.07;;;4.80;46.50;;;;;;5096664;28;20188;-45
2024/01/05 01:10:12;;;;;;;9.80;3.40;;;4.80;47.60;;;;;;5096790;28;20438;-43
2024/01/05 01:12:38;;;;;;;7.40;3.50;;;4.80;39.60;;;;;;5097982;28;20241;-44
2024/01/05 01:15:04;;;;;;;4.73;2.97;;;4.90;37.30;;;;;;5098267;28;20670;-42
2024/01/05 01:17:30;;;;;;;11.23;3.27;;;4.90;27.30;;;;;;5098703;28;20189;-42
2024/01/05 01:19:56;;;;;;;8.63;2.70;;;5.00;12.50;;;;;;5097674;28;20438;-41
2024/01/05 01:22:22;;;;;;;7.13;4.53;;;5.00;7.00;;;;;;5098429;28;20180;-47
2024/01/05 01:24:47;;;;;;;7.97;3.50;;;5.00;1.00;;;;;;5097666;28;20544;-42
2024/01/05 01:27:14;;;;;;;6.90;2.87;;;5.00;1.00;;;;;;5097295;28;20160;-42
2024/01/05 01:29:39;;;;;;;6.07;3.10;;;5.00;1.00;;;;;;5098646;28;20204;-45
2024/01/05 01:32:05;;;;;;;4.37;2.83;;;5.00;1.00;;;;;;5098911;28;20430;-42
2024/01/05 01:34:30;;;;;;;6.57;3.20;;;5.00;1.00;;;;;;5097755;28;20516;-41
2024/01/05 01:36:56;;;;;;;8.40;2.80;;;5.00;1.00;;;;;;5097851;28;20192;-42
2024/01/05 01:39:21;;;;;;;5.87;2.70;;;5.10;1.00;;;;;;5098340;28;20183;-44
2024/01/05 01:41:47;;;;;;;8.07;2.60;;;5.20;1.00;;;;;;5099360;28;20181;-42
2024/01/05 01:44:13;;;;;;;9.83;3.00;;;5.20;1.00;;;;;;5099328;28;20184;-44
2024/01/05 01:46:39;;;;;;;6.27;2.27;;;5.20;1.00;;;;;;5097854;28;20576;-42
2024/01/05 01:49:06;;;;;;;9.10;2.60;;;5.30;1.00;;;;;;5097830;28;20300;-44
2024/01/05 01:51:32;;;;;;;9.53;2.50;;;5.30;1.00;;;;;;5098491;28;20457;-43
2024/01/05 01:54:03;;;;;;;8.20;2.60;;;5.40;99.90;;;;;;5098452;28;20453;-41
2024/01/05 01:56:29;;;;;;;3.90;2.20;;;5.40;99.90;;;;;;5098722;28;20247;-41
2024/01/05 01:58:55;;;;;;;8.17;2.93;;;5.50;99.90;;;;;;5097246;28;20543;-41
2024/01/05 02:01:20;;;;;;;4.23;2.07;;;5.60;1.00;;;;;;5097228;28;20525;-45
2024/01/05 02:03:46;;;;;;;5.17;3.00;;;5.60;1.00;;;;;;5097846;28;20233;-42
2024/01/05 02:06:11;;;;;;;6.93;3.00;;;5.60;1.00;;;;;;5097945;28;20457;-46
2024/01/05 02:08:37;;;;;;;6.23;2.10;;;5.60;1.00;;;;;;5098056;28;20278;-42
2024/01/05 02:11:03;;;;;;;9.93;3.83;;;5.60;1.00;;;;;;5098009;28;20195;-44
2024/01/05 02:13:28;;;;;;;6.23;2.10;;;5.70;1.00;;;;;;5096480;28;20188;-44
2024/01/05 02:15:54;;;;;;;6.50;2.60;;;5.70;1.00;;;;;;5098334;28;20224;-42
2024/01/05 02:18:20;;;;;;;5.30;2.40;;;5.70;1.00;;;;;;5095950;28;20544;-44
2024/01/05 02:20:46;;;;;;;7.10;2.67;;;5.70;1.00;;;;;;5095507;28;20402;-46
2024/01/05 02:23:25;;;;;;;6.70;2.10;;;5.80;1.00;;;;;;5096425;28;20172;-43
2024/01/05 02:25:51;;;;;;;6.17;2.07;;;5.70;1.00;;;;;;5096720;28;20457;-42
2024/01/05 02:28:18;;;;;;;8.27;2.57;;;5.70;1.00;;;;;;5095898;28;20820;-45
2024/01/05 02:30:44;;;;;;;6.03;2.57;;;5.70;99.90;;;;;;5096821;28;20211;-44
2024/01/05 02:33:09;;;;;;;5.47;2.30;;;5.70;99.90;;;;;;5097111;28;20450;-44
2024/01/05 02:35:35;;;;;;;4.73;2.40;;;5.70;99.90;;;;;;5098204;28;20283;-43
2024/01/05 02:38:01;;;;;;;5.57;1.77;;;5.70;1.00;;;;;;5097649;28;20608;-42
2024/01/05 02:40:26;;;;;;;6.03;2.00;;;5.60;1.00;;;;;;5097694;28;20171;-42
2024/01/05 02:42:52;;;;;;;5.33;2.27;;;5.60;1.00;;;;;;5097419;28;20426;-43
2024/01/05 02:45:20;;;;;;;7.70;2.50;;;5.70;99.90;;;;;;5097372;28;20184;-42
2024/01/05 02:47:49;;;;;;;2.03;1.33;;;5.70;1.00;;;;;;5096450;28;20204;-41
2024/01/05 02:50:15;;;;;;;6.40;1.90;;;5.70;99.90;;;;;;5097458;28;20584;-44
2024/01/05 02:52:41;;;;;;;6.10;1.47;;;5.70;99.90;;;;;;5097582;28;20540;-45
2024/01/05 02:55:07;;;;;;;7.23;2.50;;;5.70;1.00;;;;;;5097858;28;20588;-44
2024/01/05 02:57:35;;;;;;;7.33;2.43;;;6.40;1.00;;;;;;5096350;28;20472;-48
2024/01/05 03:00:00;;;;;;;2.17;1.43;;;6.90;99.90;;;;;;5097521;28;20477;-44
2024/01/05 03:02:26;;;;;;;8.33;2.00;;;7.20;1.00;;;;;;5097576;28;20435;-42
2024/01/05 03:04:51;;;;;;;6.90;2.30;;;7.10;99.90;;;;;;5098152;28;20192;-39
2024/01/05 03:07:17;;;;;;;6.47;1.87;;;7.00;99.90;;;;;;5097980;28;20574;-39
2024/01/05 03:09:43;;;;;;;3.73;1.80;;;6.70;99.90;;;;;;5098395;28;20431;-38
2024/01/05 03:12:09;;;;;;;3.23;1.53;;;6.50;1.00;;;;;;5095981;28;20735;-39
2024/01/05 03:14:34;;;;;;;6.77;1.77;;;6.30;99.90;;;;;;5097778;28;20180;-38
2024/01/05 03:17:01;;;;;;;3.73;1.70;;;6.30;92.10;;;;;;5097883;28;20180;-38
2024/01/05 03:19:27;;;;;;;5.33;1.83;;;6.20;99.90;;;;;;5097351;28;20274;-39
2024/01/05 03:21:53;;;;;;;5.50;1.87;;;6.10;99.90;;;;;;5097741;28;20755;-39
2024/01/05 03:24:18;;;;;;;5.50;2.97;;;6.10;99.90;;;;;;5097389;28;20566;-38
2024/01/05 03:26:44;;;;;;;4.53;1.40;;;6.10;99.90;;;;;;5097171;28;20160;-39
2024/01/05 03:29:10;;;;;;;3.27;1.60;;;6.10;99.90;;;;;;5097160;28;20181;-39
2024/01/05 03:31:35;;;;;;;3.67;1.63;;;6.00;99.90;;;;;;5095345;28;20512;-38
2024/01/05 03:34:01;;;;;;;4.30;1.70;;;6.00;99.90;;;;;;5095718;28;20196;-37
2024/01/05 03:36:26;;;;;;;6.47;1.73;;;6.00;99.90;;;;;;5097029;28;20589;-39
2024/01/05 03:38:53;;;;;;;5.60;2.00;;;6.00;99.90;;;;;;5097164;28;20566;-37
2024/01/05 03:41:19;;;;;;;5.37;1.40;;;6.00;99.90;;;;;;5097853;28;20217;-38
2024/01/05 03:43:44;;;;;;;3.83;1.60;;;6.00;99.90;;;;;;5097763;28;20432;-40
2024/01/05 03:46:11;;;;;;;3.90;1.80;;;6.00;99.90;;;;;;5097278;28;20274;-38
2024/01/05 03:48:37;;;;;;;6.00;1.70;;;6.00;20.70;;;;;;5095914;28;20190;-38
2024/01/05 03:51:03;;;;;;;5.80;1.90;;;6.00;23.20;;;;;;5096378;28;20479;-40
2024/01/05 03:53:29;;;;;;;5.13;1.67;;;6.00;31.00;;;;;;5094966;28;20503;-38
2024/01/05 03:55:57;;;;;;;6.00;1.63;;;6.00;1.00;;;;;;5096675;28;20478;-39
2024/01/05 03:58:23;;;;;;;7.67;1.87;;;6.10;1.00;;;;;;5096619;28;20249;-37
2024/01/05 04:00:48;;;;;;;4.00;1.93;;;6.00;1.00;;;;;;5093877;28;20760;-39
2024/01/05 04:03:14;;;;;;;4.20;1.70;;;6.00;1.00;;;;;;5093581;28;20181;-38
2024/01/05 04:05:39;;;;;;;6.60;1.60;;;6.10;1.00;;;;;;5100390;28;20183;-39
2024/01/05 04:08:05;;;;;;;5.40;1.80;;;6.00;1.00;;;;;;5114769;28;20180;-40
2024/01/05 04:10:31;;;;;;;4.40;1.97;;;6.10;1.00;;;;;;5113105;28;20251;-38
2024/01/05 04:12:56;;;;;;;6.83;2.20;;;6.10;1.00;;;;;;5113884;28;20584;-38
2024/01/05 04:15:22;;;;;;;2.63;1.53;;;6.10;99.90;;;;;;5115691;28;20443;-37
2024/01/05 04:17:47;;;;;;;2.87;1.50;;;6.10;99.90;;;;;;5117183;28;20164;-38
2024/01/05 04:20:13;;;;;;;3.60;1.80;;;6.10;99.90;;;;;;5117367;28;20191;-38
2024/01/05 04:22:38;;;;;;;6.00;1.70;;;6.10;99.90;;;;;;5116053;28;20778;-40
2024/01/05 04:25:04;;;;;;;4.47;1.60;;;6.00;99.90;;;;;;5119153;28;20194;-38
2024/01/05 04:27:30;;;;;;;5.10;1.43;;;6.10;99.90;;;;;;5119790;28;20232;-39
2024/01/05 04:29:55;;;;;;;5.77;1.97;;;6.10;99.90;;;;;;5120734;28;20214;-51
2024/01/05 04:32:21;;;;;;;3.10;1.50;;;6.10;99.90;;;;;;5120960;28;20496;-38
2024/01/05 04:34:46;;;;;;;4.30;1.40;;;6.10;91.20;;;;;;5120981;28;20215;-37
2024/01/05 04:37:13;;;;;;;2.60;1.13;;;6.20;99.90;;;;;;5119512;28;20179;-38
2024/01/05 04:39:39;;;;;;;4.43;1.63;;;6.20;1.00;;;;;;5119473;28;20188;-39
2024/01/05 04:42:05;;;;;;;3.90;1.40;;;6.20;1.00;;;;;;5119426;28;20803;-40
2024/01/05 04:44:30;;;;;;;3.30;1.80;;;6.20;20.60;;;;;;5119186;28;20504;-38
2024/01/05 04:46:56;;;;;;;5.13;1.87;;;6.30;1.00;;;;;;5118619;28;20184;-38
2024/01/05 04:49:21;;;;;;;7.47;1.70;;;6.30;99.90;;;;;;5118963;28;20168;-39
2024/01/05 04:51:47;;;;;;;4.87;1.57;;;6.30;99.90;;;;;;5118847;28;20197;-39
2024/01/05 04:54:12;;;;;;;2.80;1.33;;;6.30;99.90;;;;;;5119672;28;20581;-38
2024/01/05 04:56:38;;;;;;;3.20;1.47;;;6.30;99.90;;;;;;5120493;28;20616;-38
2024/01/05 04:59:03;;;;;;;4.87;1.50;;;6.30;99.90;;;;;;5120939;28;20179;-37
2024/01/05 05:01:29;;;;;;;2.17;1.20;;;6.20;99.90;;;;;;5119265;28;20227;-38
2024/01/05 05:03:54;;;;;;;2.80;1.30;;;6.20;99.90;;;;;;5118221;28;20240;-38
2024/01/05 05:06:20;;;;;;;4.67;1.40;;;6.20;99.90;;;;;;5119054;28;20554;-37
2024/01/05 05:08:46;;;;;;;3.20;1.13;;;6.30;17.80;;;;;;5119248;28;20176;-38
2024/01/05 05:11:11;;;;;;;3.00;1.37;;;6.20;1.00;;;;;;5118070;28;20443;-40
2024/01/05 05:13:37;;;;;;;3.60;1.20;;;6.30;1.00;;;;;;5119589;28;20242;-39
2024/01/05 05:16:02;;;;;;;5.00;1.63;;;6.30;1.00;;;;;;5119455;28;20550;-39
2024/01/05 05:18:28;;;;;;;4.57;1.63;;;6.30;1.00;;;;;;5118098;28;20237;-38
2024/01/05 05:20:54;;;;;;;6.40;1.40;;;6.30;1.00;;;;;;5120312;28;20197;-39
2024/01/05 05:23:19;;;;;;;3.07;1.23;;;6.30;1.00;;;;;;5119294;28;20248;-40
2024/01/05 05:25:45;;;;;;;2.60;1.23;;;6.30;1.00;;;;;;5119675;28;20179;-42
2024/01/05 05:28:10;;;;;;;3.60;2.00;;;6.20;1.00;;;;;;5119131;28;20187;-38
2024/01/05 05:30:36;;;;;;;3.23;1.20;;;6.20;1.00;;;;;;5118159;28;20199;-39
2024/01/05 05:33:01;;;;;;;3.10;1.47;;;6.30;1.00;;;;;;5118193;28;20168;-41
2024/01/05 05:35:27;;;;;;;2.87;1.40;;;6.30;1.00;;;;;;5118043;28;20211;-38
2024/01/05 05:37:53;;;;;;;5.17;1.47;;;6.30;1.00;;;;;;5118689;28;20211;-38
2024/01/05 05:40:18;;;;;;;4.07;2.03;;;6.30;1.00;;;;;;5119141;28;20537;-40
2024/01/05 05:42:44;;;;;;;3.17;1.40;;;6.20;1.00;;;;;;5119078;28;20222;-41
2024/01/05 05:45:10;;;;;;;4.70;1.73;;;6.10;99.90;;;;;;5119477;28;20225;-39
2024/01/05 05:47:35;;;;;;;4.63;1.80;;;6.20;42.60;;;;;;5117301;28;20203;-40
2024/01/05 05:50:05;;;;;;;4.40;1.40;;;6.20;84.60;;;;;;5117585;28;20187;-39
2024/01/05 05:52:30;;;;;;;3.33;1.30;;;6.10;99.90;;;;;;5117699;28;20458;-41
2024/01/05 05:54:56;;;;;;;3.40;1.20;;;6.10;99.90;;;;;;5116880;28;20583;-39
2024/01/05 05:57:21;;;;;;;6.20;1.20;;;6.10;99.90;;;;;;5117192;28;20178;-37
2024/01/05 05:59:47;;;;;;;2.20;1.40;;;6.10;99.90;;;;;;5117131;28;20167;-38
2024/01/05 06:02:12;;;;;;;2.33;1.13;;;6.10;99.90;;;;;;5118566;28;20180;-38
2024/01/05 06:04:38;;;;;;;4.97;1.37;;;6.00;1.00;;;;;;5118836;28;20244;-41
2024/01/05 06:07:04;;;;;;;3.70;1.30;;;6.00;99.90;;;;;;5119424;28;20176;-41
2024/01/05 06:09:30;;;;;;;5.27;1.50;;;6.00;1.00;;;;;;5117355;28;20410;-38
2024/01/05 06:11:55;;;;;;;2.50;1.23;;;6.00;1.00;;;;;;5115324;28;20469;-39
2024/01/05 06:14:21;;;;;;;3.00;1.30;;;6.00;1.00;;;;;;5116148;28;20486;-39
2024/01/05 06:16:47;;;;;;;2.30;1.37;;;6.00;1.00;;;;;;5116723;28;20203;-41
2024/01/05 06:19:12;;;;;;;3.03;1.47;;;6.00;1.00;;;;;;5118215;28;20176;-39
2024/01/05 06:21:38;;;;;;;5.70;1.57;;;6.00;1.00;;;;;;5119045;28;20334;-38
2024/01/05 06:24:03;;;;;;;3.53;1.30;;;6.00;1.00;;;;;;5118554;28;20168;-38
2024/01/05 06:26:30;;;;;;;6.70;1.60;;;6.00;1.00;;;;;;5118420;28;20249;-39
2024/01/05 06:28:56;;;;;;;6.00;2.00;;;6.00;1.00;;;;;;5116765;28;20171;-39
2024/01/05 06:31:23;;;;;;;2.93;1.37;;;6.00;1.00;;;;;;5116590;28;20481;-38
2024/01/05 06:33:48;;;;;;;3.30;1.50;;;6.00;1.00;;;;;;5116331;28;20427;-39
2024/01/05 06:36:14;;;;;;;4.43;2.37;;;5.90;6.50;;;;;;5115394;28;20464;-38
2024/01/05 06:38:40;;;;;;;4.87;1.60;;;5.90;99.90;;;;;;5117325;28;20537;-40
2024/01/05 06:41:05;;;;;;;3.47;1.87;;;5.90;37.20;;;;;;5117907;28;20598;-39
2024/01/05 06:43:31;;;;;;;6.57;1.80;;;6.00;1.00;;;;;;5116148;28;20266;-38
2024/01/05 06:45:56;;;;;;;3.17;1.70;;;6.00;1.00;;;;;;5115553;28;20187;-37
2024/01/05 06:48:22;;;;;;;4.10;1.63;;;6.00;1.00;;;;;;5116107;28;20493;-38
2024/01/05 06:50:47;;;;;;;4.07;1.67;;;6.10;1.00;;;;;;5117654;28;20172;-39
2024/01/05 06:53:13;;;;;;;4.53;1.57;;;6.10;1.00;;;;;;5116583;28;20179;-42
2024/01/05 06:55:38;;;;;;;3.20;1.93;;;6.00;1.00;;;;;;5116340;28;20213;-38
2024/01/05 06:58:08;;;;;;;3.77;1.83;;;6.00;99.90;;;;;;5117762;28;20473;-37
2024/01/05 07:00:33;;;;;;;3.17;1.37;;;6.00;99.90;;;;;;5117949;28;20247;-37
2024/01/05 07:02:59;;;;;;;4.50;1.60;;;6.00;99.90;;;;;;5117643;28;20751;-39
2024/01/05 07:05:25;;;;;;;2.53;1.30;;;6.00;99.90;;;;;;5117252;28;20180;-39
2024/01/05 07:07:50;;;;;;;3.63;1.60;;;6.00;99.90;;;;;;5116518;28;20470;-39
2024/01/05 07:10:16;;;;;;;3.73;1.60;;;6.00;99.90;;;;;;5117742;28;20195;-38
2024/01/05 07:12:41;;;;;;;7.20;2.13;;;6.10;99.90;;;;;;5113734;28;20621;-38
2024/01/05 07:15:07;;;;;;;6.17;2.13;;;6.10;49.90;;;;;;5115037;28;20753;-38
2024/01/05 07:17:33;;;;;;;4.50;2.37;;;6.10;99.80;;;;;;5113130;28;20179;-40
2024/01/05 07:19:58;;;;;;;4.77;2.17;;;6.10;1.00;;;;;;5112323;28;20704;-39
2024/01/05 07:22:25;;;;;;;4.63;2.10;;;6.20;1.00;;;;;;5113042;28;20209;-39
2024/01/05 07:24:50;;;;;;;4.30;1.83;;;6.10;1.00;;;;;;5115377;28;20175;-39
2024/01/05 07:27:16;;;;;;;6.83;3.87;;;6.10;1.00;;;;;;5113888;28;20996;-39
2024/01/05 07:29:42;;;;;;;2.77;1.63;;;6.10;1.00;;;;;;5114108;28;20254;-39
2024/01/05 07:32:08;;;;;;;3.10;1.50;;;6.00;14.50;;;;;;5113893;28;20930;-38
2024/01/05 07:34:33;;;;;;;4.17;1.63;;;6.10;1.00;;;;;;5113339;28;20494;-38
2024/01/05 07:36:59;;;;;;;5.10;1.73;;;6.10;22.70;;;;;;5114390;28;20244;-40
2024/01/05 07:39:24;;;;;;;3.30;1.30;;;6.10;1.00;;;;;;5113810;28;20197;-37
2024/01/05 07:41:50;;;;;;;4.40;1.97;;;6.10;37.00;;;;;;5115846;28;20579;-40
2024/01/05 07:44:16;;;;;;;2.90;1.77;;;6.10;1.00;;;;;;5116353;28;20280;-39
2024/01/05 07:46:42;;;;;;;5.20;1.77;;;6.10;74.70;;;;;;5114385;28;20449;-39
2024/01/05 07:49:07;;;;;;;4.13;1.60;;;6.10;99.90;;;;;;5114798;28;20187;-38
2024/01/05 07:51:33;;;;;;;6.80;2.03;;;6.10;99.90;;;;;;5114551;28;20429;-40
2024/01/05 07:53:58;;;;;;;2.43;1.50;;;6.20;63.30;;;;;;5113832;28;20818;-39
2024/01/05 07:56:24;;;;;;;3.37;1.57;;;6.10;46.10;;;;;;5114040;28;20261;-40
2024/01/05 07:58:49;;;;;;;4.67;1.67;;;6.20;1.00;;;;;;5115195;28;20245;-37
2024/01/05 08:01:17;;;;;;;5.53;1.60;;;6.20;20.90;;;;;;5117401;28;20321;-38
2024/01/05 08:03:44;;;;;;;4.07;1.37;;;6.20;1.00;;;;;;5118689;27;20210;-38
2024/01/05 08:06:17;;;;;;;3.30;1.80;;;6.40;1.00;;;;;;5118850;28;20409;-38
2024/01/05 08:08:50;;;;;;;7.10;1.47;;;6.40;99.90;;;;;;5120514;27;20486;-41
2024/01/05 08:11:16;;;;;;;2.80;1.70;;;6.40;99.90;;;;;;5111225;28;20434;-38
2024/01/05 08:13:42;;;;;;;3.27;1.80;;;6.50;99.90;;;;;;5098269;28;20565;-42
2024/01/05 08:16:09;;;;;;;2.27;1.43;;;6.60;64.70;;;;;;5097153;28;20511;-39
2024/01/05 08:18:35;;;;;;;3.53;1.60;;;6.70;29.70;;;;;;5095956;28;20752;-40
2024/01/05 08:21:02;;;;;;;2.87;1.87;;;6.80;66.70;;;;;;5098444;28;20720;-39
2024/01/05 08:23:31;;;;;;;4.20;1.63;;;6.90;1.00;;;;;;5096127;28;20430;-40
2024/01/05 08:25:57;;;;;;;2.60;1.70;;;7.00;1.00;;;;;;5096852;28;20760;-39
2024/01/05 08:28:22;;;;;;;3.00;1.80;;;7.20;50.00;;;;;;5097672;28;20458;-41
2024/01/05 08:30:49;;;;;;;4.40;1.77;;;7.30;1.00;;;;;;5098067;28;20191;-38
2024/01/05 08:33:14;;;;;;;4.73;1.70;;;7.40;99.90;;;;;;5097409;28;20203;-37
2024/01/05 08:35:40;;;;;;;4.87;1.73;;;7.40;99.90;;;;;;5099328;28;20879;-38
2024/01/05 08:38:06;;;;;;;6.20;2.00;;;7.40;99.90;;;;;;5098795;28;20673;-38
2024/01/05 08:40:31;;;;;;;3.97;1.77;;;7.40;99.90;;;;;;5098262;28;20528;-39
2024/01/05 08:42:58;;;;;;;3.03;1.73;;;7.40;99.90;;;;;;5097273;28;20165;-37
2024/01/05 08:45:23;;;;;;;4.47;2.10;;;7.40;99.90;;;;;;5098143;28;20173;-38
2024/01/05 08:47:52;;;;;;;6.90;3.40;;;7.40;99.90;;;;;;5098727;28;20501;-37
2024/01/05 08:50:17;;;;;;;4.70;2.50;;;7.60;1.00;;;;;;5097524;28;20187;-38
2024/01/05 08:52:44;;;;;;;3.33;1.73;;;7.60;1.00;;;;;;5096260;28;20434;-37
2024/01/05 08:55:09;;;;;;;4.27;1.90;;;7.80;1.00;;;;;;5099034;28;20204;-38
2024/01/05 08:57:35;;;;;;;3.13;1.63;;;7.90;99.90;;;;;;5097650;28;20433;-39
2024/01/05 09:00:01;;;;;;;6.00;2.80;;;8.00;99.90;;;;;;5099226;28;20232;-38
2024/01/05 09:02:26;;;;;;;5.77;2.37;;;8.10;1.00;;;;;;5099206;28;20439;-39
2024/01/05 09:04:52;;;;;;;9.50;2.20;;;8.10;99.90;;;;;;5098284;28;20195;-39
2024/01/05 09:07:17;;;;;;;4.90;2.17;;;8.00;1.00;;;;;;5097625;28;20497;-38
2024/01/05 09:09:43;;;;;;;5.20;2.70;;;8.00;72.00;;;;;;5097942;28;20172;-37
2024/01/05 09:12:09;;;;;;;3.00;1.60;;;8.00;57.80;;;;;;5095793;28;20485;-38
2024/01/05 09:14:36;;;;;;;3.10;2.10;;;8.00;94.70;;;;;;5096988;28;20180;-37
2024/01/05 09:17:03;;;;;;;3.63;1.50;;;8.10;15.80;;;;;;5097855;28;20176;-38
2024/01/05 09:19:29;;;;;;;3.30;1.83;;;8.10;1.00;;;;;;5098106;28;20429;-40
2024/01/05 09:21:54;;;;;;;3.77;2.17;;;8.20;1.00;;;;;;5097302;28;20509;-38
2024/01/05 09:24:20;;;;;;;4.57;2.47;;;8.10;1.00;;;;;;5096830;28;20513;-39
2024/01/05 09:26:47;;;;;;;3.00;1.83;;;8.30;1.00;;;;;;5094848;28;20181;-38
2024/01/05 09:29:15;;;;;;;4.47;2.30;;;8.20;1.00;;;;;;5096039;28;20195;-38
2024/01/05 09:31:46;;;;;;;6.67;2.97;;;8.20;1.00;;;;;;5095675;28;20732;-37
2024/01/05 09:34:12;;;;;;;3.20;2.00;;;8.10;1.00;;;;;;5097600;28;20493;-41
2024/01/05 09:36:43;;;;;;;2.93;2.07;;;8.20;1.00;;;;;;5096396;28;20576;-39
2024/01/05 09:39:11;;;;;;;6.90;1.87;;;8.10;1.00;;;;;;5096927;28;20470;-38
2024/01/05 09:41:39;;;;;;;6.70;2.10;;;8.10;1.00;;;;;;5096354;28;20862;-40
2024/01/05 09:44:05;;;;;;;3.73;2.57;;;8.10;1.00;;;;;;5097362;28;20495;-37
2024/01/05 09:46:31;;;;;;;4.23;1.80;;;8.20;1.00;;;;;;5079819;28;20450;-39
2024/01/05 09:49:01;;;;;;;9.60;2.70;;;8.50;1.00;;;;;;5096852;28;20181;-39
2024/01/05 09:51:29;;;;;;;5.90;2.93;;;9.00;90.10;;;;;;5064143;28;20431;-37
2024/01/05 09:53:55;;;;;;;5.17;1.90;;;9.10;1.00;;;;;;5097146;28;20438;-40
2024/01/05 09:56:22;;;;;;;5.00;2.43;;;9.10;1.00;;;;;;5097035;28;20910;-40
2024/01/05 09:58:49;;;;;;;3.73;2.10;;;9.10;1.00;;;;;;5079036;28;20195;-39
2024/01/05 10:01:25;;;;;;;3.53;2.17;;;8.90;1.00;;;;;;5080662;28;20477;-40
2024/01/05 10:03:55;;;;;;;3.20;2.10;;;8.80;25.50;;;;;;5080109;28;20426;-40
2024/01/05 10:06:21;;;;;;;3.20;1.80;;;8.90;56.20;;;;;;5078479;28;20450;-39
2024/01/05 10:08:59;;;;;;;5.43;2.67;;;8.80;19.50;;;;;;5096658;28;20441;-39
2024/01/05 10:11:35;;;;;;;4.37;2.70;;;8.70;99.90;;;;;;5098037;28;20184;-40
2024/01/05 10:14:03;;;;;;;6.77;3.30;;;8.70;99.90;;;;;;5080969;28;20600;-39
2024/01/05 10:16:34;;;;;;;3.60;2.70;;;8.60;1.00;;;;;;5080756;28;20480;-40
2024/01/05 10:19:11;;;;;;;4.83;2.40;;;8.60;1.00;;;;;;5079769;28;20465;-37
2024/01/05 10:21:37;;;;;;;3.03;2.47;;;8.60;1.00;;;;;;5096027;28;20446;-38
2024/01/05 10:24:04;;;;;;;3.50;2.37;;;8.60;1.00;;;;;;5097035;28;20504;-39
2024/01/05 10:26:33;;;;;;;4.53;2.40;;;8.70;1.00;;;;;;5095756;28;20430;-39
2024/01/05 10:29:12;;;;;;;3.13;2.17;;;8.60;1.00;;;;;;5094095;28;20670;-38
2024/01/05 10:31:38;;;;;;;6.20;2.57;;;8.80;92.30;;;;;;5093761;28;20446;-39
2024/01/05 10:34:04;;;;;;;5.70;2.00;;;8.90;19.40;;;;;;5094966;28;20453;-39
2024/01/05 10:36:30;;;;;;;4.50;2.27;;;9.00;81.10;;;;;;5094254;28;20251;-38
2024/01/05 10:38:56;;;;;;;4.70;2.80;;;9.00;28.80;;;;;;5095938;28;20208;-39
2024/01/05 10:41:22;;;;;;;2.70;1.80;;;9.10;1.00;;;;;;5095728;28;20580;-41
2024/01/05 10:43:49;;;;;;;6.30;2.70;;;9.20;1.00;;;;;;5096481;28;20422;-38
2024/01/05 10:46:17;;;;;;;3.20;2.53;;;9.40;1.00;;;;;;5095243;28;20422;-44
2024/01/05 10:48:43;;;;;;;6.13;2.77;;;9.40;1.00;;;;;;5094697;28;20414;-37
2024/01/05 10:51:16;;;;;;;5.63;2.27;;;9.60;1.00;;;;;;5094649;28;20721;-41
2024/01/05 10:53:47;;;;;;;4.40;2.73;;;9.60;99.90;;;;;;5093521;28;20430;-40
2024/01/05 10:56:13;;;;;;;8.40;2.70;;;9.60;1.00;;;;;;5094923;28;20904;-42
2024/01/05 10:58:38;;;;;;;4.23;2.47;;;9.60;1.00;;;;;;5094796;28;20430;-39
2024/01/05 11:01:06;;;;;;;4.93;3.23;;;9.60;1.00;;;;;;5096959;28;20536;-39
2024/01/05 11:03:43;;;;;;;6.47;2.87;;;9.70;1.00;;;;;;5094981;28;20477;-38
2024/01/05 11:06:10;;;;;;;5.07;2.20;;;9.60;1.00;;;;;;5096384;28;20438;-38
2024/01/05 11:08:56;;;;;;;6.83;2.67;;;9.70;1.00;;;;;;5094074;28;20422;-38
2024/01/05 11:11:41;;;;;;;3.70;2.60;;;9.80;1.00;;;;;;5095752;28;20444;-39
2024/01/05 11:14:28;;;;;;;7.00;3.00;;;9.70;1.00;;;;;;5094518;28;20422;-42
2024/01/05 11:17:06;;;;;;;5.63;2.97;;;9.60;1.00;;;;;;5094741;28;20501;-39
2024/01/05 11:19:52;;;;;;;4.50;2.80;;;9.50;99.90;;;;;;5094600;28;20414;-39
2024/01/05 11:22:23;;;;;;;3.33;2.90;;;9.40;99.90;;;;;;5093798;28;20422;-38
2024/01/05 11:24:49;;;;;;;4.93;3.40;;;9.30;1.00;;;;;;5095717;28;20409;-41
2024/01/05 11:27:31;;;;;;;6.90;3.50;;;9.40;1.00;;;;;;5094001;28;20426;-43
2024/01/05 11:29:57;;;;;;;6.33;3.23;;;9.40;1.00;;;;;;5092992;28;20700;-39
2024/01/05 11:32:45;;;;;;;6.23;3.33;;;9.50;1.00;;;;;;5093482;28;20425;-39
2024/01/05 11:35:16;;;;;;;6.90;3.30;;;9.40;1.00;;;;;;5093602;28;20478;-40
2024/01/05 11:37:46;;;;;;;5.00;2.93;;;9.40;1.00;;;;;;5095242;28;20749;-38
2024/01/05 11:40:31;;;;;;;7.87;3.33;;;9.40;47.40;;;;;;5091444;28;20415;-39
2024/01/05 11:42:58;;;;;;;4.33;2.90;;;9.40;1.00;;;;;;5093388;28;20916;-41
2024/01/05 11:45:42;;;;;;;8.50;2.60;;;9.50;99.90;;;;;;5095862;28;20422;-41
2024/01/05 11:48:08;;;;;;;4.80;2.53;;;9.50;99.90;;;;;;5095202;28;20536;-38
2024/01/05 11:50:37;;;;;;;4.73;2.70;;;9.40;99.90;;;;;;5097587;28;21024;-39
2024/01/05 11:53:12;;;;;;;2.90;2.33;;;9.50;99.90;;;;;;5093710;28;20433;-38
2024/01/05 11:55:42;;;;;;;2.97;2.07;;;9.50;99.90;;;;;;5093954;28;20474;-40
2024/01/05 11:58:10;;;;;;;5.93;2.50;;;9.40;99.90;;;;;;5076449;28;20422;-40
2024/01/05 12:00:40;;;;;;;3.77;2.67;;;9.40;99.90;;;;;;5076724;28;20466;-43
2024/01/05 12:03:05;;;;;;;4.63;2.50;;;9.30;1.00;;;;;;5092697;28;20430;-41
2024/01/05 12:05:31;;;;;;;4.23;2.80;;;9.30;47.70;;;;;;5092218;28;20468;-39
2024/01/05 12:07:57;;;;;;;3.83;2.50;;;9.30;1.00;;;;;;5092650;28;20633;-38
2024/01/05 12:10:28;;;;;;;4.23;2.87;;;9.40;99.90;;;;;;5094589;28;20175;-40
2024/01/05 12:12:55;;;;;;;5.47;2.20;;;9.40;1.00;;;;;;5096163;28;20417;-40
2024/01/05 12:15:21;;;;;;;6.07;2.47;;;9.30;1.00;;;;;;5095784;28;20466;-38
2024/01/05 12:17:49;;;;;;;10.60;3.17;;;9.20;1.00;;;;;;5096064;28;20850;-40
2024/01/05 12:20:16;;;;;;;7.87;2.93;;;9.10;99.90;;;;;;5094244;28;20724;-41
2024/01/05 12:22:44;;;;;;;6.80;2.83;;;9.20;69.90;;;;;;5076506;28;20877;-40
2024/01/05 12:25:10;;;;;;;3.60;2.80;;;9.20;98.60;;;;;;5093681;28;20441;-41
2024/01/05 12:27:39;;;;;;;5.43;2.90;;;9.20;1.00;;;;;;5077925;28;20528;-39
2024/01/05 12:30:07;;;;;;;5.73;3.90;;;9.20;99.90;;;;;;5095169;28;20188;-41
2024/01/05 12:32:35;;;;;;;5.40;3.83;;;9.10;19.10;;;;;;5092896;28;20456;-39
2024/01/05 12:35:02;;;;;;;4.70;2.20;;;9.00;99.90;;;;;;5092167;28;20792;-40
2024/01/05 12:37:28;;;;;;;7.03;2.90;;;8.90;1.00;;;;;;5095019;28;20449;-37
2024/01/05 12:39:54;;;;;;;6.63;2.60;;;9.00;1.00;;;;;;5077031;28;20430;-38
2024/01/05 12:42:19;;;;;;;5.00;2.90;;;9.10;1.00;;;;;;5096659;28;20429;-39
2024/01/05 12:44:45;;;;;;;6.77;2.40;;;9.10;1.00;;;;;;5096302;28;20412;-39
2024/01/05 12:47:11;;;;;;;6.70;2.33;;;9.10;1.00;;;;;;5098080;28;20176;-46
2024/01/05 12:49:37;;;;;;;7.50;1.40;;;9.00;1.00;;;;;;5080770;28;20184;-44
2024/01/05 12:52:08;;;;;;;5.10;2.80;;;9.80;1.00;;;;;;5098268;28;20418;-49
2024/01/05 12:54:42;;;;;;;6.93;3.00;;;10.20;99.90;;;;;;5096892;28;20592;-44
2024/01/05 12:57:09;;;;;;;3.10;2.33;;;10.80;16.70;;;;;;5100019;28;20437;-46
2024/01/05 12:59:37;;;;;;;5.37;3.10;;;11.40;1.00;;;;;;5081728;28;20430;-43
2024/01/05 13:02:05;;;;;;;2.80;2.03;;;11.80;99.90;;;;;;5097690;28;20628;-42